sensor_id;sensor_type;location;lat;lon;timestamp;P1;durP1;ratioP1;P2;durP2;ratioP2
17494;SDS011;8864;51.970;4.614;2023-08-12T00:02:16;1.75;;;1.20;;
17494;SDS011;8864;51.970;4.614;2023-08-12T00:04:45;1.92;;;1.30;;
17494;SDS011;8864;51.970;4.614;2023-08-12T00:07:12;2.10;;;1.30;;
17494;SDS011;8864;51.970;4.614;2023-08-12T00:09:40;2.78;;;1.40;;
17494;SDS011;8864;51.970;4.614;2023-08-12T00:12:08;2.97;;;1.45;;
17494;SDS011;8864;51.970;4.614;2023-08-12T00:14:34;5.18;;;1.48;;
17494;SDS011;8864;51.970;4.614;2023-08-12T00:17:03;3.70;;;1.38;;
17494;SDS011;8864;51.970;4.614;2023-08-12T00:19:30;2.28;;;1.10;;
17494;SDS011;8864;51.970;4.614;2023-08-12T00:21:57;3.42;;;1.35;;
17494;SDS011;8864;51.970;4.614;2023-08-12T00:24:25;2.53;;;1.48;;
17494;SDS011;8864;51.970;4.614;2023-08-12T00:26:52;3.03;;;1.25;;
17494;SDS011;8864;51.970;4.614;2023-08-12T00:29:19;2.20;;;1.17;;
17494;SDS011;8864;51.970;4.614;2023-08-12T00:31:46;3.58;;;1.40;;
17494;SDS011;8864;51.970;4.614;2023-08-12T00:34:14;3.10;;;1.40;;
17494;SDS011;8864;51.970;4.614;2023-08-12T00:36:41;3.58;;;1.17;;
17494;SDS011;8864;51.970;4.614;2023-08-12T00:39:11;2.38;;;1.20;;
17494;SDS011;8864;51.970;4.614;2023-08-12T00:41:38;5.68;;;1.23;;
17494;SDS011;8864;51.970;4.614;2023-08-12T00:44:05;4.43;;;1.35;;
17494;SDS011;8864;51.970;4.614;2023-08-12T00:46:32;4.00;;;1.20;;
17494;SDS011;8864;51.970;4.614;2023-08-12T00:49:00;3.35;;;1.30;;
17494;SDS011;8864;51.970;4.614;2023-08-12T00:51:28;3.58;;;1.30;;
17494;SDS011;8864;51.970;4.614;2023-08-12T00:53:55;4.68;;;1.42;;
17494;SDS011;8864;51.970;4.614;2023-08-12T00:56:24;3.70;;;1.20;;
17494;SDS011;8864;51.970;4.614;2023-08-12T00:58:52;2.15;;;1.08;;
17494;SDS011;8864;51.970;4.614;2023-08-12T01:01:20;2.75;;;1.15;;
17494;SDS011;8864;51.970;4.614;2023-08-12T01:03:48;2.45;;;1.17;;
17494;SDS011;8864;51.970;4.614;2023-08-12T01:06:14;3.88;;;1.20;;
17494;SDS011;8864;51.970;4.614;2023-08-12T01:08:43;3.15;;;1.30;;
17494;SDS011;8864;51.970;4.614;2023-08-12T01:11:12;3.13;;;1.30;;
17494;SDS011;8864;51.970;4.614;2023-08-12T01:13:49;1.75;;;1.20;;
17494;SDS011;8864;51.970;4.614;2023-08-12T01:16:20;4.00;;;1.30;;
17494;SDS011;8864;51.970;4.614;2023-08-12T01:18:50;3.55;;;1.50;;
17494;SDS011;8864;51.970;4.614;2023-08-12T01:21:19;3.50;;;1.25;;
17494;SDS011;8864;51.970;4.614;2023-08-12T01:23:49;7.60;;;1.25;;
17494;SDS011;8864;51.970;4.614;2023-08-12T01:26:16;2.75;;;1.27;;
17494;SDS011;8864;51.970;4.614;2023-08-12T01:28:43;2.78;;;1.10;;
17494;SDS011;8864;51.970;4.614;2023-08-12T01:31:11;2.05;;;1.10;;
17494;SDS011;8864;51.970;4.614;2023-08-12T01:33:46;2.67;;;1.30;;
17494;SDS011;8864;51.970;4.614;2023-08-12T01:36:18;2.42;;;1.13;;
17494;SDS011;8864;51.970;4.614;2023-08-12T01:38:46;3.40;;;1.30;;
17494;SDS011;8864;51.970;4.614;2023-08-12T01:41:17;3.42;;;1.05;;
17494;SDS011;8864;51.970;4.614;2023-08-12T01:43:47;3.15;;;1.13;;
17494;SDS011;8864;51.970;4.614;2023-08-12T01:46:14;1.58;;;1.10;;
17494;SDS011;8864;51.970;4.614;2023-08-12T01:48:41;2.20;;;1.20;;
17494;SDS011;8864;51.970;4.614;2023-08-12T01:51:09;2.35;;;0.98;;
17494;SDS011;8864;51.970;4.614;2023-08-12T01:53:37;2.70;;;1.25;;
17494;SDS011;8864;51.970;4.614;2023-08-12T01:56:05;3.40;;;1.40;;
17494;SDS011;8864;51.970;4.614;2023-08-12T01:58:32;6.57;;;1.90;;
17494;SDS011;8864;51.970;4.614;2023-08-12T02:01:00;3.05;;;1.27;;
17494;SDS011;8864;51.970;4.614;2023-08-12T02:03:27;2.70;;;1.30;;
17494;SDS011;8864;51.970;4.614;2023-08-12T02:05:54;4.13;;;1.50;;
17494;SDS011;8864;51.970;4.614;2023-08-12T02:08:21;2.45;;;1.42;;
17494;SDS011;8864;51.970;4.614;2023-08-12T02:10:48;3.58;;;1.40;;
17494;SDS011;8864;51.970;4.614;2023-08-12T02:13:16;2.85;;;1.35;;
17494;SDS011;8864;51.970;4.614;2023-08-12T02:15:43;2.53;;;1.30;;
17494;SDS011;8864;51.970;4.614;2023-08-12T02:18:10;3.35;;;1.40;;
17494;SDS011;8864;51.970;4.614;2023-08-12T02:20:37;2.08;;;1.40;;
17494;SDS011;8864;51.970;4.614;2023-08-12T02:23:06;4.18;;;1.50;;
17494;SDS011;8864;51.970;4.614;2023-08-12T02:25:33;2.80;;;1.25;;
17494;SDS011;8864;51.970;4.614;2023-08-12T02:28:00;3.55;;;1.65;;
17494;SDS011;8864;51.970;4.614;2023-08-12T02:30:29;3.85;;;1.40;;
17494;SDS011;8864;51.970;4.614;2023-08-12T02:32:56;2.55;;;1.20;;
17494;SDS011;8864;51.970;4.614;2023-08-12T02:35:23;4.93;;;1.40;;
17494;SDS011;8864;51.970;4.614;2023-08-12T02:37:50;3.88;;;1.50;;
17494;SDS011;8864;51.970;4.614;2023-08-12T02:40:17;3.00;;;1.50;;
17494;SDS011;8864;51.970;4.614;2023-08-12T02:42:44;2.80;;;1.33;;
17494;SDS011;8864;51.970;4.614;2023-08-12T02:45:11;4.18;;;2.00;;
17494;SDS011;8864;51.970;4.614;2023-08-12T02:47:42;3.05;;;1.70;;
17494;SDS011;8864;51.970;4.614;2023-08-12T02:50:09;3.75;;;1.83;;
17494;SDS011;8864;51.970;4.614;2023-08-12T02:52:35;3.78;;;1.65;;
17494;SDS011;8864;51.970;4.614;2023-08-12T02:55:03;2.17;;;1.55;;
17494;SDS011;8864;51.970;4.614;2023-08-12T02:57:30;3.33;;;1.50;;
17494;SDS011;8864;51.970;4.614;2023-08-12T02:59:57;3.63;;;1.50;;
17494;SDS011;8864;51.970;4.614;2023-08-12T03:02:29;4.28;;;1.52;;
17494;SDS011;8864;51.970;4.614;2023-08-12T03:04:57;2.72;;;1.52;;
17494;SDS011;8864;51.970;4.614;2023-08-12T03:07:24;2.88;;;1.50;;
17494;SDS011;8864;51.970;4.614;2023-08-12T03:09:51;3.28;;;1.58;;
17494;SDS011;8864;51.970;4.614;2023-08-12T03:12:20;3.00;;;1.60;;
17494;SDS011;8864;51.970;4.614;2023-08-12T03:14:47;3.13;;;1.60;;
17494;SDS011;8864;51.970;4.614;2023-08-12T03:17:13;3.80;;;1.55;;
17494;SDS011;8864;51.970;4.614;2023-08-12T03:19:41;2.95;;;1.40;;
17494;SDS011;8864;51.970;4.614;2023-08-12T03:22:10;3.33;;;1.70;;
17494;SDS011;8864;51.970;4.614;2023-08-12T03:24:37;3.80;;;1.60;;
17494;SDS011;8864;51.970;4.614;2023-08-12T03:27:05;2.28;;;1.45;;
17494;SDS011;8864;51.970;4.614;2023-08-12T03:29:32;3.38;;;1.50;;
17494;SDS011;8864;51.970;4.614;2023-08-12T03:32:00;3.80;;;1.75;;
17494;SDS011;8864;51.970;4.614;2023-08-12T03:34:27;2.58;;;1.65;;
17494;SDS011;8864;51.970;4.614;2023-08-12T03:36:55;3.03;;;1.65;;
17494;SDS011;8864;51.970;4.614;2023-08-12T03:39:23;3.28;;;1.48;;
17494;SDS011;8864;51.970;4.614;2023-08-12T03:41:50;3.28;;;1.90;;
17494;SDS011;8864;51.970;4.614;2023-08-12T03:44:18;4.90;;;1.88;;
17494;SDS011;8864;51.970;4.614;2023-08-12T03:46:45;2.72;;;1.70;;
17494;SDS011;8864;51.970;4.614;2023-08-12T03:49:11;3.30;;;1.55;;
17494;SDS011;8864;51.970;4.614;2023-08-12T03:51:39;3.05;;;1.60;;
17494;SDS011;8864;51.970;4.614;2023-08-12T03:54:06;4.15;;;1.70;;
17494;SDS011;8864;51.970;4.614;2023-08-12T03:56:35;2.63;;;1.50;;
17494;SDS011;8864;51.970;4.614;2023-08-12T03:59:01;3.92;;;1.60;;
17494;SDS011;8864;51.970;4.614;2023-08-12T04:01:29;2.65;;;1.58;;
17494;SDS011;8864;51.970;4.614;2023-08-12T04:03:56;3.30;;;1.85;;
17494;SDS011;8864;51.970;4.614;2023-08-12T04:06:23;3.60;;;1.50;;
17494;SDS011;8864;51.970;4.614;2023-08-12T04:08:50;3.60;;;1.80;;
17494;SDS011;8864;51.970;4.614;2023-08-12T04:11:17;3.28;;;1.70;;
17494;SDS011;8864;51.970;4.614;2023-08-12T04:13:45;3.42;;;1.67;;
17494;SDS011;8864;51.970;4.614;2023-08-12T04:16:12;5.53;;;2.13;;
17494;SDS011;8864;51.970;4.614;2023-08-12T04:18:40;4.65;;;1.90;;
17494;SDS011;8864;51.970;4.614;2023-08-12T04:21:07;3.58;;;1.67;;
17494;SDS011;8864;51.970;4.614;2023-08-12T04:23:34;3.58;;;1.70;;
17494;SDS011;8864;51.970;4.614;2023-08-12T04:26:01;2.72;;;1.58;;
17494;SDS011;8864;51.970;4.614;2023-08-12T04:28:29;5.57;;;2.05;;
17494;SDS011;8864;51.970;4.614;2023-08-12T04:30:57;4.75;;;1.85;;
17494;SDS011;8864;51.970;4.614;2023-08-12T04:33:24;7.50;;;1.65;;
17494;SDS011;8864;51.970;4.614;2023-08-12T04:35:52;4.15;;;1.85;;
17494;SDS011;8864;51.970;4.614;2023-08-12T04:38:20;5.45;;;2.00;;
17494;SDS011;8864;51.970;4.614;2023-08-12T04:40:48;5.70;;;2.47;;
17494;SDS011;8864;51.970;4.614;2023-08-12T04:43:15;3.92;;;2.10;;
17494;SDS011;8864;51.970;4.614;2023-08-12T04:45:44;7.20;;;2.35;;
17494;SDS011;8864;51.970;4.614;2023-08-12T04:48:14;4.28;;;2.53;;
17494;SDS011;8864;51.970;4.614;2023-08-12T04:50:41;6.25;;;2.72;;
17494;SDS011;8864;51.970;4.614;2023-08-12T04:53:09;10.18;;;3.30;;
17494;SDS011;8864;51.970;4.614;2023-08-12T04:55:36;6.93;;;2.80;;
17494;SDS011;8864;51.970;4.614;2023-08-12T04:58:03;6.82;;;2.70;;
17494;SDS011;8864;51.970;4.614;2023-08-12T05:00:30;9.95;;;3.28;;
17494;SDS011;8864;51.970;4.614;2023-08-12T05:02:58;6.85;;;2.75;;
17494;SDS011;8864;51.970;4.614;2023-08-12T05:05:26;8.02;;;2.95;;
17494;SDS011;8864;51.970;4.614;2023-08-12T05:07:54;6.75;;;2.85;;
17494;SDS011;8864;51.970;4.614;2023-08-12T05:10:20;4.35;;;2.45;;
17494;SDS011;8864;51.970;4.614;2023-08-12T05:12:47;9.13;;;3.25;;
17494;SDS011;8864;51.970;4.614;2023-08-12T05:15:17;7.57;;;2.70;;
17494;SDS011;8864;51.970;4.614;2023-08-12T05:17:44;5.40;;;2.75;;
17494;SDS011;8864;51.970;4.614;2023-08-12T05:20:11;6.00;;;2.38;;
17494;SDS011;8864;51.970;4.614;2023-08-12T05:22:42;5.72;;;2.60;;
17494;SDS011;8864;51.970;4.614;2023-08-12T05:25:10;6.60;;;2.90;;
17494;SDS011;8864;51.970;4.614;2023-08-12T05:27:36;5.70;;;2.50;;
17494;SDS011;8864;51.970;4.614;2023-08-12T05:30:04;4.25;;;2.28;;
17494;SDS011;8864;51.970;4.614;2023-08-12T05:32:31;7.68;;;2.63;;
17494;SDS011;8864;51.970;4.614;2023-08-12T05:34:59;5.93;;;2.60;;
17494;SDS011;8864;51.970;4.614;2023-08-12T05:37:26;6.57;;;2.50;;
17494;SDS011;8864;51.970;4.614;2023-08-12T05:39:54;6.88;;;3.10;;
17494;SDS011;8864;51.970;4.614;2023-08-12T05:42:21;4.95;;;2.50;;
17494;SDS011;8864;51.970;4.614;2023-08-12T05:44:48;5.22;;;2.53;;
17494;SDS011;8864;51.970;4.614;2023-08-12T05:47:15;6.00;;;2.65;;
17494;SDS011;8864;51.970;4.614;2023-08-12T05:49:42;6.22;;;2.92;;
17494;SDS011;8864;51.970;4.614;2023-08-12T05:52:09;5.45;;;2.58;;
17494;SDS011;8864;51.970;4.614;2023-08-12T05:54:36;5.35;;;2.30;;
17494;SDS011;8864;51.970;4.614;2023-08-12T05:57:04;6.25;;;2.72;;
17494;SDS011;8864;51.970;4.614;2023-08-12T05:59:31;6.43;;;2.30;;
17494;SDS011;8864;51.970;4.614;2023-08-12T06:01:59;7.65;;;2.70;;
17494;SDS011;8864;51.970;4.614;2023-08-12T06:04:25;4.22;;;2.20;;
17494;SDS011;8864;51.970;4.614;2023-08-12T06:06:52;7.95;;;2.53;;
17494;SDS011;8864;51.970;4.614;2023-08-12T06:09:20;4.10;;;2.28;;
17494;SDS011;8864;51.970;4.614;2023-08-12T06:11:47;5.38;;;2.33;;
17494;SDS011;8864;51.970;4.614;2023-08-12T06:14:16;5.03;;;2.10;;
17494;SDS011;8864;51.970;4.614;2023-08-12T06:16:44;4.85;;;2.40;;
17494;SDS011;8864;51.970;4.614;2023-08-12T06:19:11;8.88;;;2.50;;
17494;SDS011;8864;51.970;4.614;2023-08-12T06:21:38;5.18;;;1.85;;
17494;SDS011;8864;51.970;4.614;2023-08-12T06:24:05;4.07;;;1.70;;
17494;SDS011;8864;51.970;4.614;2023-08-12T06:26:32;4.95;;;1.90;;
17494;SDS011;8864;51.970;4.614;2023-08-12T06:28:59;3.03;;;1.85;;
17494;SDS011;8864;51.970;4.614;2023-08-12T06:31:28;4.78;;;1.63;;
17494;SDS011;8864;51.970;4.614;2023-08-12T06:33:55;2.75;;;1.65;;
17494;SDS011;8864;51.970;4.614;2023-08-12T06:36:22;5.10;;;1.60;;
17494;SDS011;8864;51.970;4.614;2023-08-12T06:38:50;2.65;;;1.48;;
17494;SDS011;8864;51.970;4.614;2023-08-12T06:41:17;2.20;;;1.20;;
17494;SDS011;8864;51.970;4.614;2023-08-12T06:43:44;2.35;;;1.30;;
17494;SDS011;8864;51.970;4.614;2023-08-12T06:46:10;4.78;;;1.63;;
17494;SDS011;8864;51.970;4.614;2023-08-12T06:48:39;2.72;;;1.35;;
17494;SDS011;8864;51.970;4.614;2023-08-12T06:51:06;3.63;;;1.50;;
17494;SDS011;8864;51.970;4.614;2023-08-12T06:53:35;2.13;;;1.38;;
17494;SDS011;8864;51.970;4.614;2023-08-12T06:56:05;2.83;;;1.20;;
17494;SDS011;8864;51.970;4.614;2023-08-12T06:58:32;1.58;;;1.13;;
17494;SDS011;8864;51.970;4.614;2023-08-12T07:00:59;1.70;;;1.13;;
17494;SDS011;8864;51.970;4.614;2023-08-12T07:03:26;4.60;;;1.20;;
17494;SDS011;8864;51.970;4.614;2023-08-12T07:05:55;1.25;;;1.00;;
17494;SDS011;8864;51.970;4.614;2023-08-12T07:08:22;2.55;;;1.35;;
17494;SDS011;8864;51.970;4.614;2023-08-12T07:10:50;2.42;;;1.20;;
17494;SDS011;8864;51.970;4.614;2023-08-12T07:13:17;1.33;;;0.90;;
17494;SDS011;8864;51.970;4.614;2023-08-12T07:15:44;3.25;;;0.90;;
17494;SDS011;8864;51.970;4.614;2023-08-12T07:18:11;2.67;;;1.20;;
17494;SDS011;8864;51.970;4.614;2023-08-12T07:20:38;2.95;;;0.98;;
17494;SDS011;8864;51.970;4.614;2023-08-12T07:23:06;1.33;;;0.75;;
17494;SDS011;8864;51.970;4.614;2023-08-12T07:25:33;1.80;;;1.00;;
17494;SDS011;8864;51.970;4.614;2023-08-12T07:28:00;1.75;;;0.98;;
17494;SDS011;8864;51.970;4.614;2023-08-12T07:30:27;1.83;;;0.93;;
17494;SDS011;8864;51.970;4.614;2023-08-12T07:32:54;1.88;;;1.02;;
17494;SDS011;8864;51.970;4.614;2023-08-12T07:35:21;2.17;;;0.88;;
17494;SDS011;8864;51.970;4.614;2023-08-12T07:37:48;3.00;;;0.80;;
17494;SDS011;8864;51.970;4.614;2023-08-12T07:40:17;2.40;;;1.05;;
17494;SDS011;8864;51.970;4.614;2023-08-12T07:42:44;6.43;;;1.38;;
17494;SDS011;8864;51.970;4.614;2023-08-12T07:45:11;3.40;;;1.27;;
17494;SDS011;8864;51.970;4.614;2023-08-12T07:47:38;9.57;;;1.40;;
17494;SDS011;8864;51.970;4.614;2023-08-12T07:50:05;4.25;;;1.10;;
17494;SDS011;8864;51.970;4.614;2023-08-12T07:52:33;4.82;;;1.00;;
17494;SDS011;8864;51.970;4.614;2023-08-12T07:55:00;11.35;;;1.80;;
17494;SDS011;8864;51.970;4.614;2023-08-12T07:57:30;9.73;;;2.00;;
17494;SDS011;8864;51.970;4.614;2023-08-12T07:59:58;17.48;;;3.35;;
17494;SDS011;8864;51.970;4.614;2023-08-12T08:02:24;14.90;;;3.03;;
17494;SDS011;8864;51.970;4.614;2023-08-12T08:04:51;10.52;;;2.78;;
17494;SDS011;8864;51.970;4.614;2023-08-12T08:07:19;15.18;;;2.95;;
17494;SDS011;8864;51.970;4.614;2023-08-12T08:09:46;12.10;;;3.03;;
17494;SDS011;8864;51.970;4.614;2023-08-12T08:12:13;19.70;;;3.33;;
17494;SDS011;8864;51.970;4.614;2023-08-12T08:14:42;13.88;;;3.20;;
17494;SDS011;8864;51.970;4.614;2023-08-12T08:17:09;10.70;;;2.83;;
17494;SDS011;8864;51.970;4.614;2023-08-12T08:19:36;12.98;;;3.05;;
17494;SDS011;8864;51.970;4.614;2023-08-12T08:22:03;15.50;;;3.50;;
17494;SDS011;8864;51.970;4.614;2023-08-12T08:24:31;15.45;;;3.92;;
17494;SDS011;8864;51.970;4.614;2023-08-12T08:26:58;20.63;;;3.72;;
17494;SDS011;8864;51.970;4.614;2023-08-12T08:29:25;13.75;;;3.17;;
17494;SDS011;8864;51.970;4.614;2023-08-12T08:31:55;15.20;;;3.00;;
17494;SDS011;8864;51.970;4.614;2023-08-12T08:34:22;12.10;;;3.30;;
17494;SDS011;8864;51.970;4.614;2023-08-12T08:36:50;7.72;;;2.55;;
17494;SDS011;8864;51.970;4.614;2023-08-12T08:39:17;10.40;;;2.42;;
17494;SDS011;8864;51.970;4.614;2023-08-12T08:41:44;9.23;;;2.42;;
17494;SDS011;8864;51.970;4.614;2023-08-12T08:44:14;11.55;;;2.80;;
17494;SDS011;8864;51.970;4.614;2023-08-12T08:46:42;11.30;;;2.47;;
17494;SDS011;8864;51.970;4.614;2023-08-12T08:49:12;9.98;;;2.45;;
17494;SDS011;8864;51.970;4.614;2023-08-12T08:51:42;11.80;;;2.72;;
17494;SDS011;8864;51.970;4.614;2023-08-12T08:54:12;10.55;;;2.58;;
17494;SDS011;8864;51.970;4.614;2023-08-12T08:56:40;7.40;;;2.42;;
17494;SDS011;8864;51.970;4.614;2023-08-12T08:59:08;9.23;;;2.40;;
17494;SDS011;8864;51.970;4.614;2023-08-12T09:01:34;9.95;;;2.60;;
17494;SDS011;8864;51.970;4.614;2023-08-12T09:04:02;9.68;;;2.25;;
17494;SDS011;8864;51.970;4.614;2023-08-12T09:06:33;9.90;;;2.25;;
17494;SDS011;8864;51.970;4.614;2023-08-12T09:09:03;7.57;;;2.17;;
17494;SDS011;8864;51.970;4.614;2023-08-12T09:11:37;7.72;;;2.00;;
17494;SDS011;8864;51.970;4.614;2023-08-12T09:14:05;9.45;;;1.88;;
17494;SDS011;8864;51.970;4.614;2023-08-12T09:16:33;9.63;;;2.13;;
17494;SDS011;8864;51.970;4.614;2023-08-12T09:19:00;8.15;;;2.30;;
17494;SDS011;8864;51.970;4.614;2023-08-12T09:21:27;7.53;;;1.88;;
17494;SDS011;8864;51.970;4.614;2023-08-12T09:23:56;6.93;;;2.10;;
17494;SDS011;8864;51.970;4.614;2023-08-12T09:26:29;9.48;;;2.33;;
17494;SDS011;8864;51.970;4.614;2023-08-12T09:28:56;7.95;;;2.50;;
17494;SDS011;8864;51.970;4.614;2023-08-12T09:31:25;9.35;;;2.63;;
17494;SDS011;8864;51.970;4.614;2023-08-12T09:33:53;7.50;;;2.40;;
17494;SDS011;8864;51.970;4.614;2023-08-12T09:36:23;5.80;;;2.15;;
17494;SDS011;8864;51.970;4.614;2023-08-12T09:38:53;7.95;;;2.28;;
17494;SDS011;8864;51.970;4.614;2023-08-12T09:41:22;8.10;;;2.00;;
17494;SDS011;8864;51.970;4.614;2023-08-12T09:43:50;6.30;;;1.90;;
17494;SDS011;8864;51.970;4.614;2023-08-12T09:46:18;7.70;;;2.55;;
17494;SDS011;8864;51.970;4.614;2023-08-12T09:48:49;5.68;;;2.00;;
17494;SDS011;8864;51.970;4.614;2023-08-12T09:51:17;5.53;;;2.30;;
17494;SDS011;8864;51.970;4.614;2023-08-12T09:53:44;4.88;;;1.60;;
17494;SDS011;8864;51.970;4.614;2023-08-12T09:56:17;6.35;;;2.10;;
17494;SDS011;8864;51.970;4.614;2023-08-12T09:58:46;4.57;;;1.63;;
17494;SDS011;8864;51.970;4.614;2023-08-12T10:01:15;5.07;;;1.58;;
17494;SDS011;8864;51.970;4.614;2023-08-12T10:03:44;4.43;;;1.50;;
17494;SDS011;8864;51.970;4.614;2023-08-12T10:06:16;7.88;;;1.95;;
17494;SDS011;8864;51.970;4.614;2023-08-12T10:08:45;6.03;;;1.63;;
17494;SDS011;8864;51.970;4.614;2023-08-12T10:11:13;6.88;;;2.10;;
17494;SDS011;8864;51.970;4.614;2023-08-12T10:13:42;5.70;;;1.67;;
17494;SDS011;8864;51.970;4.614;2023-08-12T10:16:09;7.03;;;2.10;;
17494;SDS011;8864;51.970;4.614;2023-08-12T10:18:38;4.10;;;1.73;;
17494;SDS011;8864;51.970;4.614;2023-08-12T10:21:06;4.43;;;1.40;;
17494;SDS011;8864;51.970;4.614;2023-08-12T10:23:36;7.03;;;1.67;;
17494;SDS011;8864;51.970;4.614;2023-08-12T10:26:05;4.32;;;1.42;;
17494;SDS011;8864;51.970;4.614;2023-08-12T10:28:34;4.35;;;1.50;;
17494;SDS011;8864;51.970;4.614;2023-08-12T10:31:03;2.72;;;1.55;;
17494;SDS011;8864;51.970;4.614;2023-08-12T10:33:34;3.20;;;1.27;;
17494;SDS011;8864;51.970;4.614;2023-08-12T10:36:02;5.47;;;1.40;;
17494;SDS011;8864;51.970;4.614;2023-08-12T10:38:34;4.93;;;1.30;;
17494;SDS011;8864;51.970;4.614;2023-08-12T10:41:17;3.45;;;1.40;;
17494;SDS011;8864;51.970;4.614;2023-08-12T10:43:55;8.27;;;1.80;;
17494;SDS011;8864;51.970;4.614;2023-08-12T10:46:28;5.85;;;1.58;;
17494;SDS011;8864;51.970;4.614;2023-08-12T10:49:02;3.75;;;1.42;;
17494;SDS011;8864;51.970;4.614;2023-08-12T10:51:40;4.18;;;1.25;;
17494;SDS011;8864;51.970;4.614;2023-08-12T10:54:11;3.00;;;1.30;;
17494;SDS011;8864;51.970;4.614;2023-08-12T10:59:51;2.53;;;1.13;;
17494;SDS011;8864;51.970;4.614;2023-08-12T11:02:20;4.07;;;1.55;;
17494;SDS011;8864;51.970;4.614;2023-08-12T11:04:52;4.18;;;1.38;;
17494;SDS011;8864;51.970;4.614;2023-08-12T11:07:21;3.38;;;1.23;;
17494;SDS011;8864;51.970;4.614;2023-08-12T11:09:54;2.97;;;1.30;;
17494;SDS011;8864;51.970;4.614;2023-08-12T11:12:29;5.25;;;1.40;;
17494;SDS011;8864;51.970;4.614;2023-08-12T11:14:58;4.82;;;1.33;;
17494;SDS011;8864;51.970;4.614;2023-08-12T11:17:32;3.15;;;1.40;;
17494;SDS011;8864;51.970;4.614;2023-08-12T11:20:00;3.95;;;1.30;;
17494;SDS011;8864;51.970;4.614;2023-08-12T11:22:30;3.60;;;1.40;;
17494;SDS011;8864;51.970;4.614;2023-08-12T11:24:59;3.78;;;1.08;;
17494;SDS011;8864;51.970;4.614;2023-08-12T11:27:27;3.60;;;1.10;;
17494;SDS011;8864;51.970;4.614;2023-08-12T11:29:54;4.20;;;1.25;;
17494;SDS011;8864;51.970;4.614;2023-08-12T11:32:23;5.90;;;1.48;;
17494;SDS011;8864;51.970;4.614;2023-08-12T11:34:50;3.13;;;1.20;;
17494;SDS011;8864;51.970;4.614;2023-08-12T11:37:17;3.10;;;1.20;;
17494;SDS011;8864;51.970;4.614;2023-08-12T11:39:44;3.30;;;1.30;;
17494;SDS011;8864;51.970;4.614;2023-08-12T11:42:12;2.80;;;1.48;;
17494;SDS011;8864;51.970;4.614;2023-08-12T11:44:40;2.55;;;1.10;;
17494;SDS011;8864;51.970;4.614;2023-08-12T11:47:07;4.22;;;1.17;;
17494;SDS011;8864;51.970;4.614;2023-08-12T11:49:35;2.58;;;1.05;;
17494;SDS011;8864;51.970;4.614;2023-08-12T11:52:02;3.20;;;1.20;;
17494;SDS011;8864;51.970;4.614;2023-08-12T11:54:30;5.07;;;1.30;;
17494;SDS011;8864;51.970;4.614;2023-08-12T11:56:59;2.22;;;1.08;;
17494;SDS011;8864;51.970;4.614;2023-08-12T11:59:26;3.33;;;1.23;;
17494;SDS011;8864;51.970;4.614;2023-08-12T12:01:54;4.68;;;0.98;;
17494;SDS011;8864;51.970;4.614;2023-08-12T12:04:21;2.72;;;0.93;;
17494;SDS011;8864;51.970;4.614;2023-08-12T12:06:50;2.35;;;1.10;;
17494;SDS011;8864;51.970;4.614;2023-08-12T12:09:17;2.40;;;1.25;;
17494;SDS011;8864;51.970;4.614;2023-08-12T12:11:45;4.93;;;1.17;;
17494;SDS011;8864;51.970;4.614;2023-08-12T12:14:12;4.05;;;1.10;;
17494;SDS011;8864;51.970;4.614;2023-08-12T12:16:40;3.53;;;1.17;;
17494;SDS011;8864;51.970;4.614;2023-08-12T12:19:15;3.42;;;1.00;;
17494;SDS011;8864;51.970;4.614;2023-08-12T12:21:44;3.90;;;1.15;;
17494;SDS011;8864;51.970;4.614;2023-08-12T12:24:14;3.42;;;1.23;;
17494;SDS011;8864;51.970;4.614;2023-08-12T12:26:41;2.55;;;1.10;;
17494;SDS011;8864;51.970;4.614;2023-08-12T12:29:08;4.50;;;1.02;;
17494;SDS011;8864;51.970;4.614;2023-08-12T12:31:37;4.78;;;1.15;;
17494;SDS011;8864;51.970;4.614;2023-08-12T12:34:04;4.63;;;1.35;;
17494;SDS011;8864;51.970;4.614;2023-08-12T12:36:32;3.65;;;1.27;;
17494;SDS011;8864;51.970;4.614;2023-08-12T12:39:01;3.70;;;1.42;;
17494;SDS011;8864;51.970;4.614;2023-08-12T12:41:30;3.25;;;1.25;;
17494;SDS011;8864;51.970;4.614;2023-08-12T12:43:58;6.43;;;1.30;;
17494;SDS011;8864;51.970;4.614;2023-08-12T12:46:26;4.45;;;1.48;;
17494;SDS011;8864;51.970;4.614;2023-08-12T12:48:54;4.40;;;1.30;;
17494;SDS011;8864;51.970;4.614;2023-08-12T12:51:23;3.97;;;1.40;;
17494;SDS011;8864;51.970;4.614;2023-08-12T12:53:50;3.75;;;1.17;;
17494;SDS011;8864;51.970;4.614;2023-08-12T12:56:20;9.23;;;1.20;;
17494;SDS011;8864;51.970;4.614;2023-08-12T12:58:48;3.95;;;1.40;;
17494;SDS011;8864;51.970;4.614;2023-08-12T13:01:15;5.88;;;0.95;;
17494;SDS011;8864;51.970;4.614;2023-08-12T13:03:42;3.40;;;1.25;;
17494;SDS011;8864;51.970;4.614;2023-08-12T13:06:10;5.90;;;1.40;;
17494;SDS011;8864;51.970;4.614;2023-08-12T13:08:37;4.70;;;1.20;;
17494;SDS011;8864;51.970;4.614;2023-08-12T13:11:04;4.20;;;1.17;;
17494;SDS011;8864;51.970;4.614;2023-08-12T13:13:30;6.60;;;1.40;;
17494;SDS011;8864;51.970;4.614;2023-08-12T13:15:59;6.28;;;1.42;;
17494;SDS011;8864;51.970;4.614;2023-08-12T13:18:26;3.67;;;1.20;;
17494;SDS011;8864;51.970;4.614;2023-08-12T13:20:53;4.93;;;1.27;;
17494;SDS011;8864;51.970;4.614;2023-08-12T13:23:20;5.55;;;1.58;;
17494;SDS011;8864;51.970;4.614;2023-08-12T13:25:47;6.57;;;1.80;;
17494;SDS011;8864;51.970;4.614;2023-08-12T13:28:14;4.93;;;1.40;;
17494;SDS011;8864;51.970;4.614;2023-08-12T13:30:41;7.30;;;1.70;;
17494;SDS011;8864;51.970;4.614;2023-08-12T13:33:10;7.68;;;1.60;;
17494;SDS011;8864;51.970;4.614;2023-08-12T13:35:37;8.80;;;1.73;;
17494;SDS011;8864;51.970;4.614;2023-08-12T13:38:04;6.78;;;1.38;;
17494;SDS011;8864;51.970;4.614;2023-08-12T13:40:31;5.07;;;1.55;;
17494;SDS011;8864;51.970;4.614;2023-08-12T13:42:58;6.13;;;1.40;;
17494;SDS011;8864;51.970;4.614;2023-08-12T13:45:25;8.30;;;1.48;;
17494;SDS011;8864;51.970;4.614;2023-08-12T13:47:52;6.20;;;1.73;;
17494;SDS011;8864;51.970;4.614;2023-08-12T13:50:20;5.60;;;1.80;;
17494;SDS011;8864;51.970;4.614;2023-08-12T13:52:47;6.72;;;1.67;;
17494;SDS011;8864;51.970;4.614;2023-08-12T13:55:15;5.97;;;1.80;;
17494;SDS011;8864;51.970;4.614;2023-08-12T13:57:42;4.22;;;1.50;;
17494;SDS011;8864;51.970;4.614;2023-08-12T14:00:10;6.22;;;1.73;;
17494;SDS011;8864;51.970;4.614;2023-08-12T14:02:39;8.18;;;1.55;;
17494;SDS011;8864;51.970;4.614;2023-08-12T14:05:07;6.20;;;1.77;;
17494;SDS011;8864;51.970;4.614;2023-08-12T14:07:36;4.00;;;1.42;;
17494;SDS011;8864;51.970;4.614;2023-08-12T14:10:04;7.32;;;1.92;;
17494;SDS011;8864;51.970;4.614;2023-08-12T14:12:32;4.60;;;1.60;;
17494;SDS011;8864;51.970;4.614;2023-08-12T14:14:59;10.35;;;2.03;;
17494;SDS011;8864;51.970;4.614;2023-08-12T14:17:26;6.03;;;1.80;;
17494;SDS011;8864;51.970;4.614;2023-08-12T14:19:53;6.15;;;1.77;;
17494;SDS011;8864;51.970;4.614;2023-08-12T14:22:21;7.25;;;1.88;;
17494;SDS011;8864;51.970;4.614;2023-08-12T14:24:49;6.15;;;1.70;;
17494;SDS011;8864;51.970;4.614;2023-08-12T14:27:16;9.32;;;2.25;;
17494;SDS011;8864;51.970;4.614;2023-08-12T14:29:43;6.22;;;1.63;;
17494;SDS011;8864;51.970;4.614;2023-08-12T14:32:10;9.98;;;1.73;;
17494;SDS011;8864;51.970;4.614;2023-08-12T14:34:41;7.78;;;1.73;;
17494;SDS011;8864;51.970;4.614;2023-08-12T14:37:10;7.10;;;2.05;;
17494;SDS011;8864;51.970;4.614;2023-08-12T14:39:37;7.03;;;2.15;;
17494;SDS011;8864;51.970;4.614;2023-08-12T14:42:05;15.43;;;2.38;;
17494;SDS011;8864;51.970;4.614;2023-08-12T14:44:34;6.82;;;1.90;;
17494;SDS011;8864;51.970;4.614;2023-08-12T14:47:01;5.32;;;1.73;;
17494;SDS011;8864;51.970;4.614;2023-08-12T14:49:28;13.32;;;2.15;;
17494;SDS011;8864;51.970;4.614;2023-08-12T14:51:55;8.30;;;2.08;;
17494;SDS011;8864;51.970;4.614;2023-08-12T14:54:22;8.90;;;2.20;;
17494;SDS011;8864;51.970;4.614;2023-08-12T14:56:50;11.45;;;2.67;;
17494;SDS011;8864;51.970;4.614;2023-08-12T14:59:18;8.23;;;2.17;;
17494;SDS011;8864;51.970;4.614;2023-08-12T15:01:45;8.30;;;2.13;;
17494;SDS011;8864;51.970;4.614;2023-08-12T15:04:12;11.18;;;2.13;;
17494;SDS011;8864;51.970;4.614;2023-08-12T15:06:41;7.82;;;2.08;;
17494;SDS011;8864;51.970;4.614;2023-08-12T15:09:09;12.63;;;2.55;;